Ambia, Indiana
Current Conditions -  °F | °C
As of 10:15 PM on Wednesday 22 Oct 2014 (Local Time) from KDNV Reporting Station
Haze Haze  
Wind Chill: 36°   Ceiling: Unl
Heat Index: 39°   Visibility: 5mi
Dew Point: 36°   Wind: 5mph
Humidity: 89%   Direction: 80°E
Pressure: 30.23"   Gusts: NA
Location:  40.49°N, 87.52°W
Report Text: KDNV 230215Z AUTO 08004KT 5SM BR CLR 04/02 A3023 RMK AO2 T00400023
Loading
Personal Weather Stations






























Interactive Weather Map New forecast layout! Learn more

10-Day Weather Forecast

Advertisements
Track Severe Weather on mobile